ESNQESUP

Guest
Details From ESNQ - Kiruna
To ESUP - Pajala
Flight Number -
Tags generated
Created
Modified
Stats Distance 72 nm / 133 km
Max Altitude 0 ft / 0 m
Waypoints 3
Social Downloads 1
Likes 0
Share

Download

Looking for another format? Having issues loading an existing format? Contact us
Advertisement - Login to hide

Notes

Basic altitude profile: - Ascent Rate: 2500ft/min - Ascent Speed: 120kts - Cruise Altitude: 4000ft - Cruise Speed: 168kts - Descent Rate: 1500ft/min - Descent Speed: 120kts Options: - Use NATs: yes - Use PACOTS: yes - Use low airways: yes - Use high airways: yes

Route

ESNQ KRA ESUP

ID Type Via Altitude (ft/m) Position (lat/lon) Dist (leg/tot) Name
O ESNQ APT - 0 / 0 67.82198 / 20.33676 - / 0 nm Kiruna
KRA VOR - 0 / 0 67.81922 / 20.33750 0 / 0 nm KIRUNA VOR-DME
O ESUP APT - 0 / 0 67.24583 / 23.06903 71 / 71 nm Pajala

Altitude Profile

Advertisement - Login to hide

ESNQ

Details ICAO ESNQ (KRN)
Name Kiruna
Region Sweden
Timezone Europe/Stockholm (UTC+2.0)
Stats Elevation 1,507 ft / 459 m (AMSL)
Location 67.822000° 20.336800°
Runways 1
Magnetic Variation 9.792° E

METAR

ESNQ 131550Z AUTO 04010KT 9999 OVC005/// 03/02 Q1015

Decode

TAF

Not found

Departure Runways

ID Width Length Bearing (true/mag) Surface Threshold Overrun Markings Lighting
03 148 ft / 45 m 8,216 ft / 2,504 m 33.56° / 23.77° ASPHALT 0 ft / 0 m 0 ft / 0 m APP CENTERLINE EDGE THRESHOLD MALSF
21 148 ft / 45 m 8,216 ft / 2,504 m 213.59° / 203.80° ASPHALT 0 ft / 0 m 0 ft / 0 m APP CENTERLINE EDGE THRESHOLD MALSF

ESUP

Details ICAO ESUP (PJA)
Name Pajala
Region Sweden
Timezone Europe/Stockholm (UTC+2.0)
Stats Elevation 542 ft / 165 m (AMSL)
Location 67.245800° 23.069000°
Runways 1
Magnetic Variation 11.029° E

METAR

ESUP 131550Z AUTO 35006KT 320V020 9999 OVC004/// 05/05 Q1014

Decode

TAF

Not found

Destination Runways

ID Width Length Bearing (true/mag) Surface Threshold Overrun Markings Lighting
11 98 ft / 30 m 4,645 ft / 1,416 m 118.19° / 107.17° ASPHALT 0 ft / 0 m 80 ft / 24 m PREC-APP EDGE THRESHOLD SSALR
29 98 ft / 30 m 4,645 ft / 1,416 m 298.22° / 287.19° ASPHALT 0 ft / 0 m 80 ft / 24 m APP EDGE THRESHOLD

Approach Navaids

Runway Type Ident Frequency Range Bearing (true/mag) Slope Elevation
11 DME IUP 111.50 MHz 18 nm / 33 km - - 551 ft / 168 m (AMSL)
11 LOC-ILS IUP 111.50 MHz 18 nm / 33 km 118.25° / 107.23 ° - 542 ft / 165 m (AMSL)
11 GS IUP 111.50 MHz 10 nm / 19 km 118.42° / 107.39 ° 3.00° 542 ft / 165 m (AMSL)